Time;durP1;ratioP1;P1;durP2;ratioP2;P2;SDS_P1;SDS_P2;PMS_P1;PMS_P2;Temp;Humidity;BMP_temperature;BMP_pressure;BME280_temperature;BME280_humidity;BME280_pressure;Samples;Min_cycle;Max_cycle;Signal;HPM_P1;HPM_P2
2021/07/23 00:02:57;;;;;;;6.73;4.47;;;;;;;16.29;100.00;94901.19;10547557;28;20020;-78
2021/07/23 00:07:58;;;;;;;6.40;3.80;;;;;;;16.27;100.00;94893.38;10531295;28;20035;-78
2021/07/23 00:12:59;;;;;;;5.20;3.83;;;;;;;16.14;100.00;94905.81;10531892;28;20072;-78
2021/07/23 00:18:03;;;;;;;6.45;4.30;;;;;;;15.93;100.00;94900.03;10534210;28;20031;-78
2021/07/23 00:23:03;;;;;;;7.28;4.10;;;;;;;16.04;100.00;94900.63;10530828;28;20035;-78
2021/07/23 00:28:04;;;;;;;6.60;4.00;;;;;;;16.03;100.00;94912.56;10512727;28;20031;-78
2021/07/23 00:33:05;;;;;;;6.60;4.05;;;;;;;16.04;100.00;94914.97;10531290;28;20032;-79
2021/07/23 00:38:05;;;;;;;7.60;3.93;;;;;;;16.05;100.00;94913.09;10528843;28;20024;-78
2021/07/23 00:43:06;;;;;;;9.07;4.05;;;;;;;15.99;100.00;94903.44;10529374;28;20089;-78
2021/07/23 00:48:06;;;;;;;3.60;3.00;;;;;;;15.93;100.00;94891.91;10530396;28;20027;-78
2021/07/23 00:53:09;;;;;;;4.63;3.58;;;;;;;15.89;100.00;94891.72;10529782;28;20024;-78
2021/07/23 00:58:11;;;;;;;9.15;4.03;;;;;;;15.71;100.00;94889.88;10529740;28;20085;-78
2021/07/23 01:03:12;;;;;;;5.95;3.80;;;;;;;15.45;100.00;94886.88;10530526;28;20019;-78
2021/07/23 01:08:12;;;;;;;6.15;3.67;;;;;;;15.43;100.00;94889.88;10529666;28;20494;-78
2021/07/23 01:13:13;;;;;;;6.27;3.60;;;;;;;15.29;100.00;94889.84;10529714;28;20016;-77
2021/07/23 01:18:14;;;;;;;6.00;3.90;;;;;;;15.30;100.00;94880.63;10529854;28;20063;-77
2021/07/23 01:23:35;;;;;;;5.25;3.40;;;;;;;15.37;100.00;94894.59;10528618;28;20496;-77
2021/07/23 01:28:36;;;;;;;5.13;3.45;;;;;;;15.37;100.00;94886.47;10528716;28;20455;-78
2021/07/23 01:33:36;;;;;;;10.68;3.95;;;;;;;15.21;100.00;94890.56;10528820;28;20049;-78
2021/07/23 01:38:37;;;;;;;7.90;3.63;;;;;;;15.30;100.00;94875.22;10528234;28;20053;-78
2021/07/23 01:43:38;;;;;;;6.90;4.28;;;;;;;15.32;100.00;94883.88;10527927;28;20020;-77
2021/07/23 01:48:39;;;;;;;6.45;4.97;;;;;;;15.27;100.00;94877.75;10528014;28;20028;-78
2021/07/23 01:53:39;;;;;;;6.67;4.03;;;;;;;15.29;100.00;94878.22;10527301;28;20090;-78
2021/07/23 01:58:39;;;;;;;5.93;4.13;;;;;;;15.16;100.00;94883.31;10527170;28;20765;-77
2021/07/23 02:03:40;;;;;;;5.70;3.63;;;;;;;15.23;100.00;94880.22;10527203;28;20028;-78
2021/07/23 02:08:40;;;;;;;5.63;4.03;;;;;;;15.20;100.00;94876.22;10525765;28;20028;-78
2021/07/23 02:13:40;;;;;;;6.67;4.13;;;;;;;15.12;100.00;94876.91;10525963;28;20020;-78
2021/07/23 02:18:41;;;;;;;4.53;3.50;;;;;;;15.08;100.00;94875.88;10542231;28;20032;-78
2021/07/23 02:23:41;;;;;;;6.97;4.50;;;;;;;15.02;100.00;94882.50;10526467;28;20043;-77
2021/07/23 02:28:41;;;;;;;4.93;3.47;;;;;;;14.94;100.00;94880.47;10526359;28;20031;-78
2021/07/23 02:33:42;;;;;;;6.03;3.73;;;;;;;14.91;100.00;94879.16;10526358;28;20074;-78
2021/07/23 02:38:42;;;;;;;7.22;4.03;;;;;;;14.77;100.00;94881.84;10526535;28;20024;-78
2021/07/23 02:43:47;;;;;;;5.93;4.03;;;;;;;14.67;100.00;94877.38;10541759;28;20130;-77
2021/07/23 02:48:48;;;;;;;6.65;3.70;;;;;;;14.67;100.00;94879.31;10525659;28;20465;-77
2021/07/23 02:53:48;;;;;;;5.60;3.83;;;;;;;14.64;100.00;94875.28;10525102;28;20024;-77
2021/07/23 02:58:48;;;;;;;9.03;3.97;;;;;;;14.63;100.00;94879.06;10524279;28;20036;-77
2021/07/23 03:03:49;;;;;;;5.27;3.73;;;;;;;14.53;100.00;94887.34;10525190;28;20293;-77
2021/07/23 03:08:49;;;;;;;6.57;3.60;;;;;;;14.57;100.00;94887.53;10525045;28;20417;-77
2021/07/23 03:13:50;;;;;;;5.53;3.85;;;;;;;14.55;100.00;94882.41;10524914;28;20036;-78
2021/07/23 03:18:50;;;;;;;7.90;3.97;;;;;;;14.49;100.00;94889.03;10524773;28;20364;-78
2021/07/23 03:23:50;;;;;;;9.57;3.50;;;;;;;14.51;100.00;94881.41;10540603;28;20471;-77
2021/07/23 03:28:51;;;;;;;6.20;3.97;;;;;;;14.53;100.00;94885.41;10524583;28;20205;-77
2021/07/23 03:33:52;;;;;;;6.67;4.70;;;;;;;14.45;100.00;94883.38;10524476;28;20265;-78
2021/07/23 03:38:52;;;;;;;7.07;4.10;;;;;;;14.50;100.00;94886.00;10524439;28;20111;-77
2021/07/23 03:43:52;;;;;;;15.20;4.23;;;;;;;14.45;100.00;94890.69;10524938;28;20039;-78
2021/07/23 03:48:53;;;;;;;7.13;4.47;;;;;;;14.46;100.00;94895.81;10524050;28;20020;-78
2021/07/23 03:53:53;;;;;;;5.85;4.28;;;;;;;14.51;100.00;94898.44;10522259;28;20031;-77
2021/07/23 03:58:54;;;;;;;5.60;4.20;;;;;;;14.50;100.00;94898.75;10523253;28;20023;-77
2021/07/23 04:03:54;;;;;;;8.65;4.72;;;;;;;14.52;100.00;94899.25;10537330;28;20515;-77
2021/07/23 04:08:55;;;;;;;4.97;3.73;;;;;;;14.70;100.00;94897.66;10523187;28;20032;-76
2021/07/23 04:13:55;;;;;;;5.25;4.15;;;;;;;14.77;100.00;94894.56;10522877;28;20024;-77
2021/07/23 04:18:55;;;;;;;6.60;4.20;;;;;;;14.89;100.00;94889.50;10522558;28;20028;-76
2021/07/23 04:23:56;;;;;;;6.33;4.50;;;;;;;15.12;100.00;94889.66;10561547;27;20154;-76
2021/07/23 04:28:56;;;;;;;9.30;4.30;;;;;;;15.33;100.00;94890.06;10580443;27;20087;-77
2021/07/23 04:33:58;;;;;;;9.77;4.60;;;;;;;15.57;100.00;94886.38;10580651;27;20273;-76
2021/07/23 04:39:03;;;;;;;11.57;5.22;;;;;;;15.92;100.00;94884.91;10590649;27;20028;-76
2021/07/23 04:44:03;;;;;;;7.43;4.88;;;;;;;16.37;100.00;94884.19;10560795;27;20069;-76
2021/07/23 04:49:04;;;;;;;9.55;4.65;;;;;;;17.01;100.00;94885.94;10578031;27;20030;-77
2021/07/23 04:54:04;;;;;;;10.37;4.67;;;;;;;17.59;100.00;94884.97;10545370;27;20030;-77
2021/07/23 04:59:04;;;;;;;10.67;4.57;;;;;;;18.17;100.00;94876.03;10583698;27;20374;-76
2021/07/23 05:04:05;;;;;;;19.27;5.53;;;;;;;18.57;100.00;94874.00;10612114;27;20268;-77
2021/07/23 05:09:06;;;;;;;10.05;4.85;;;;;;;19.08;100.00;94876.19;10579219;27;20061;-77
2021/07/23 05:14:07;;;;;;;9.70;5.03;;;;;;;19.67;100.00;94870.06;10585775;27;20035;-77
2021/07/23 05:19:10;;;;;;;9.00;4.65;;;;;;;20.04;100.00;94869.56;10595123;27;20102;-76
2021/07/23 05:24:10;;;;;;;12.50;4.63;;;;;;;20.70;100.00;94868.97;10610653;27;20066;-76
2021/07/23 05:29:11;;;;;;;12.00;4.27;;;;;;;21.24;98.68;94870.88;10610914;27;20026;-76
2021/07/23 05:34:11;;;;;;;7.07;3.80;;;;;;;21.74;92.31;94868.22;10590535;27;20277;-76
2021/07/23 05:39:11;;;;;;;8.57;4.10;;;;;;;22.23;89.48;94868.22;10607690;27;20076;-76
2021/07/23 05:44:12;;;;;;;14.90;4.30;;;;;;;22.67;85.43;94862.88;10607926;27;20049;-77
2021/07/23 05:49:12;;;;;;;11.50;4.07;;;;;;;23.34;83.00;94869.81;10611612;27;20019;-77
2021/07/23 05:54:12;;;;;;;6.63;4.07;;;;;;;23.06;84.12;94872.56;10611278;27;20458;-77
2021/07/23 05:59:13;;;;;;;13.10;5.20;;;;;;;23.38;82.44;94876.19;10611252;27;20028;-77
2021/07/23 06:04:14;;;;;;;7.72;4.57;;;;;;;23.88;71.65;94871.22;10610771;27;20105;-77
2021/07/23 06:09:16;;;;;;;8.30;3.87;;;;;;;23.74;70.71;94870.84;10610157;27;20019;-77
2021/07/23 06:14:16;;;;;;;8.32;3.85;;;;;;;24.83;64.98;94874.91;10610531;27;20438;-77
2021/07/23 06:19:16;;;;;;;16.23;4.77;;;;;;;25.15;62.74;94864.53;10610502;27;20083;-77
2021/07/23 06:24:17;;;;;;;6.37;3.67;;;;;;;25.95;59.44;94863.97;10611560;27;20043;-77
2021/07/23 06:29:17;;;;;;;7.13;3.40;;;;;;;26.78;56.99;94856.94;10627686;27;20275;-77
2021/07/23 06:34:17;;;;;;;6.67;4.13;;;;;;;26.71;53.87;94856.84;10611696;27;20299;-77
2021/07/23 06:39:18;;;;;;;7.43;3.97;;;;;;;26.02;56.67;94855.84;10611019;27;20080;-77
2021/07/23 06:44:19;;;;;;;7.60;3.50;;;;;;;27.29;53.17;94850.03;10592978;27;20682;-77
2021/07/23 06:49:19;;;;;;;6.38;3.92;;;;;;;28.40;49.22;94852.97;10610623;27;20505;-77
2021/07/23 06:54:20;;;;;;;7.13;3.67;;;;;;;29.14;47.02;94845.44;10610494;27;20027;-77
2021/07/23 06:59:20;;;;;;;9.27;3.10;;;;;;;29.78;44.91;94848.75;10610854;27;20067;-77
2021/07/23 07:04:20;;;;;;;7.43;3.80;;;;;;;30.58;43.84;94838.44;10592439;27;20031;-78
2021/07/23 07:09:25;;;;;;;7.77;3.23;;;;;;;30.94;41.60;94835.53;10610409;27;20019;-77
2021/07/23 07:14:26;;;;;;;7.10;3.15;;;;;;;30.83;40.75;94821.69;10610517;27;20547;-78
2021/07/23 07:19:26;;;;;;;8.32;3.40;;;;;;;28.76;43.45;94833.84;10610635;27;20084;-77
2021/07/23 07:24:27;;;;;;;8.60;3.73;;;;;;;28.96;43.88;94822.47;10609661;28;20043;-77
2021/07/23 07:29:27;;;;;;;11.17;4.27;;;;;;;29.70;43.05;94823.03;10610328;28;20024;-77
2021/07/23 07:34:34;;;;;;;9.27;3.20;;;;;;;30.95;39.35;94817.66;10610334;27;20269;-77
2021/07/23 07:39:34;;;;;;;7.40;3.30;;;;;;;32.53;38.58;94815.78;10615388;27;20023;-77
2021/07/23 07:44:34;;;;;;;8.03;3.30;;;;;;;33.47;35.56;94818.22;10609781;28;20039;-77
2021/07/23 07:49:35;;;;;;;9.90;2.97;;;;;;;34.59;32.94;94813.59;10610156;28;20647;-77
2021/07/23 07:54:35;;;;;;;6.53;2.83;;;;;;;34.79;32.52;94807.22;10609539;27;20501;-77
2021/07/23 07:59:40;;;;;;;9.77;3.10;;;;;;;35.18;32.16;94805.66;10609555;27;20080;-77
2021/07/23 08:04:40;;;;;;;7.30;3.13;;;;;;;36.12;30.23;94804.31;10612892;27;20195;-77
2021/07/23 08:09:58;;;;;;;12.90;3.63;;;;;;;35.62;29.92;94808.31;10617494;27;20067;-77
2021/07/23 08:14:59;;;;;;;5.95;2.80;;;;;;;36.18;30.19;94805.34;10617038;27;20019;-77
2021/07/23 08:20:02;;;;;;;10.27;2.90;;;;;;;37.04;28.33;94795.91;10616940;27;20035;-77
2021/07/23 08:25:03;;;;;;;6.00;3.00;;;;;;;37.25;28.81;94797.28;10616755;27;20050;-77
2021/07/23 08:30:05;;;;;;;4.82;2.45;;;;;;;37.18;27.55;94795.47;10616954;27;20039;-78
2021/07/23 08:35:05;;;;;;;7.97;2.17;;;;;;;37.49;25.42;94796.97;10616608;27;20019;-77
2021/07/23 08:40:07;;;;;;;6.50;2.20;;;;;;;38.08;25.27;94798.31;10597660;27;20512;-77
2021/07/23 08:45:07;;;;;;;8.27;2.38;;;;;;;37.62;24.66;94787.34;10615977;27;20031;-77
2021/07/23 08:50:09;;;;;;;6.15;1.95;;;;;;;37.95;23.74;94789.13;10615785;27;20043;-77
2021/07/23 08:55:12;;;;;;;7.00;2.67;;;;;;;37.38;24.97;94772.06;10615726;27;20042;-77
2021/07/23 09:00:17;;;;;;;4.82;2.00;;;;;;;37.69;24.32;94775.13;10544455;27;20119;-77
2021/07/23 09:05:20;;;;;;;10.30;1.77;;;;;;;38.37;22.28;94772.06;10530855;28;20039;-78
2021/07/23 09:10:22;;;;;;;5.80;2.03;;;;;;;38.29;22.19;94774.38;10530627;28;20024;-77
2021/07/23 09:15:41;;;;;;;6.47;1.92;;;;;;;38.75;22.03;94759.13;10529774;28;20035;-78
2021/07/23 09:20:42;;;;;;;2.72;1.63;;;;;;;39.14;20.12;94756.88;10530053;28;20395;-77
2021/07/23 09:25:44;;;;;;;3.67;2.00;;;;;;;39.12;19.29;94762.16;10529509;28;20048;-78
2021/07/23 09:30:45;;;;;;;2.97;1.90;;;;;;;39.82;20.14;94748.56;10529052;28;20039;-77
2021/07/23 09:35:54;;;;;;;2.85;1.80;;;;;;;40.30;18.38;94744.59;10529412;28;20471;-78
2021/07/23 09:40:54;;;;;;;4.55;1.90;;;;;;;37.85;19.97;94759.41;10528611;28;20034;-78
2021/07/23 09:45:54;;;;;;;9.87;1.70;;;;;;;37.67;19.69;94735.50;10529449;28;20030;-78
2021/07/23 09:50:55;;;;;;;4.28;2.47;;;;;;;39.50;19.61;94741.44;10528557;28;20445;-78
2021/07/23 09:55:56;;;;;;;2.90;2.25;;;;;;;39.85;19.45;94734.84;10529000;28;20024;-78
2021/07/23 10:01:00;;;;;;;7.60;2.13;;;;;;;38.12;20.75;94737.22;10528303;28;20052;-78
2021/07/23 10:06:00;;;;;;;5.88;2.47;;;;;;;35.39;22.16;94731.75;10528197;28;20384;-78
2021/07/23 10:11:03;;;;;;;6.78;2.50;;;;;;;35.18;23.54;94719.84;10527741;28;20024;-78
2021/07/23 10:16:05;;;;;;;4.25;2.25;;;;;;;36.27;20.69;94710.38;10527966;28;20032;-78
2021/07/23 10:21:06;;;;;;;4.95;2.47;;;;;;;38.16;19.90;94713.88;10527948;28;20032;-78
2021/07/23 10:26:07;;;;;;;5.60;2.65;;;;;;;37.95;20.09;94711.31;10526691;28;20040;-78
2021/07/23 10:31:24;;;;;;;4.22;2.13;;;;;;;38.98;19.83;94699.63;10527416;28;20028;-78
2021/07/23 10:36:29;;;;;;;4.63;2.17;;;;;;;40.24;18.78;94696.56;10526657;28;20060;-78
2021/07/23 10:41:35;;;;;;;3.17;2.40;;;;;;;38.53;19.48;94697.31;10526204;28;20043;-78
2021/07/23 10:46:44;;;;;;;7.90;2.90;;;;;;;35.68;23.06;94695.53;10527137;28;20384;-78
2021/07/23 10:51:49;;;;;;;3.78;2.88;;;;;;;33.36;25.65;94689.44;10526454;28;20031;-78
2021/07/23 10:57:01;;;;;;;3.78;2.42;;;;;;;33.77;25.74;94684.78;10526735;28;20184;-78
2021/07/23 11:02:02;;;;;;;4.63;2.80;;;;;;;32.52;25.68;94687.00;10526041;28;20035;-78
2021/07/23 11:07:03;;;;;;;10.63;3.13;;;;;;;32.50;27.43;94683.03;10526387;28;20477;-78
2021/07/23 11:12:21;;;;;;;6.28;3.28;;;;;;;33.62;25.57;94670.31;10507882;28;20020;-78
2021/07/23 11:17:22;;;;;;;5.10;2.58;;;;;;;33.21;25.37;94669.34;10525344;28;20400;-78
2021/07/23 11:22:23;;;;;;;5.37;3.40;;;;;;;32.16;28.13;94664.41;10525698;28;20032;-78
2021/07/23 11:27:29;;;;;;;7.40;3.38;;;;;;;32.17;27.34;94663.97;10525797;28;20044;-78
2021/07/23 11:32:30;;;;;;;6.07;3.13;;;;;;;31.39;28.09;94665.53;10525980;28;20088;-78
2021/07/23 11:37:30;;;;;;;10.43;3.80;;;;;;;30.61;29.31;94654.56;10526601;28;20024;-78
2021/07/23 11:42:42;;;;;;;7.78;2.97;;;;;;;29.77;28.37;94656.03;10534419;28;20034;-78
2021/07/23 11:47:48;;;;;;;3.80;3.10;;;;;;;29.13;29.46;94652.88;10533248;28;20028;-78
2021/07/23 11:52:51;;;;;;;11.50;3.47;;;;;;;28.81;31.63;94659.19;10539766;28;20041;-78
2021/07/23 11:57:52;;;;;;;11.05;3.55;;;;;;;28.73;31.77;94651.28;10533375;28;20032;-78
2021/07/23 12:02:53;;;;;;;7.10;3.13;;;;;;;28.78;31.15;94657.22;10532817;28;20028;-77
2021/07/23 12:08:01;;;;;;;5.90;3.33;;;;;;;28.72;33.70;94652.44;10532955;28;20176;-78
2021/07/23 12:13:06;;;;;;;5.55;3.08;;;;;;;28.56;34.37;94645.28;10532899;28;20124;-78
2021/07/23 12:18:08;;;;;;;7.63;3.30;;;;;;;28.77;33.47;94641.81;10532585;28;20035;-78
2021/07/23 12:23:09;;;;;;;8.48;2.92;;;;;;;28.56;33.28;94637.00;10532180;28;20411;-77
2021/07/23 12:28:14;;;;;;;8.95;2.88;;;;;;;28.47;33.18;94623.56;10532405;28;20728;-77
2021/07/23 12:33:16;;;;;;;6.15;3.72;;;;;;;28.38;33.75;94631.41;10532331;28;20032;-78
2021/07/23 12:38:17;;;;;;;5.97;3.22;;;;;;;28.44;34.84;94631.84;10530214;28;20051;-78
2021/07/23 12:43:19;;;;;;;8.48;2.72;;;;;;;28.58;33.51;94633.84;10531181;28;20039;-78
2021/07/23 12:48:21;;;;;;;6.95;3.90;;;;;;;28.47;32.30;94629.09;10531178;28;20032;-78
2021/07/23 12:53:25;;;;;;;8.98;3.10;;;;;;;28.54;34.46;94630.31;10531178;28;20040;-78
2021/07/23 12:58:39;;;;;;;9.77;3.65;;;;;;;28.45;34.35;94619.59;10531220;28;20384;-78
2021/07/23 13:03:41;;;;;;;6.25;2.95;;;;;;;28.26;34.62;94612.47;10530690;28;20031;-78
2021/07/23 13:08:42;;;;;;;4.95;2.92;;;;;;;28.24;34.60;94610.06;10530748;28;20024;-78
2021/07/23 13:13:42;;;;;;;5.28;3.22;;;;;;;27.73;35.40;94608.28;10530312;28;20062;-78
2021/07/23 13:18:44;;;;;;;12.13;3.38;;;;;;;27.93;35.82;94606.78;10530478;28;20107;-78
2021/07/23 13:23:44;;;;;;;6.97;3.47;;;;;;;27.71;37.77;94605.09;10530121;28;20036;-77
2021/07/23 13:28:44;;;;;;;5.50;3.50;;;;;;;27.74;37.06;94596.84;10529623;28;20028;-78
2021/07/23 13:33:47;;;;;;;4.93;2.67;;;;;;;27.43;37.02;94610.09;10529187;28;20024;-78
2021/07/23 13:39:01;;;;;;;5.22;3.10;;;;;;;27.34;38.08;94598.56;10529905;28;20024;-78
2021/07/23 13:44:04;;;;;;;6.07;3.53;;;;;;;26.89;37.47;94597.84;10529048;28;20429;-77
2021/07/23 13:49:05;;;;;;;4.72;3.53;;;;;;;26.94;38.05;94597.50;10584490;27;20034;-78
2021/07/23 13:54:06;;;;;;;6.43;3.70;;;;;;;27.01;38.36;94592.03;10574792;27;20023;-85
2021/07/23 13:59:08;;;;;;;5.83;2.77;;;;;;;27.07;39.79;94586.94;10600832;27;20398;-78
2021/07/23 14:04:08;;;;;;;4.93;3.50;;;;;;;27.19;38.63;94589.41;10583643;27;20102;-77
2021/07/23 14:09:10;;;;;;;5.05;2.70;;;;;;;27.19;37.05;94588.63;10579050;27;20093;-85
2021/07/23 14:14:10;;;;;;;7.07;2.90;;;;;;;27.20;38.28;94588.22;10563655;27;20027;-85
2021/07/23 14:19:11;;;;;;;9.70;3.10;;;;;;;27.18;37.16;94590.56;10592348;27;20023;-85
2021/07/23 14:24:11;;;;;;;4.00;3.13;;;;;;;27.07;39.45;94601.53;10601742;27;20081;-85
2021/07/23 14:29:12;;;;;;;4.97;2.87;;;;;;;27.12;39.03;94592.88;10615843;27;20023;-85
2021/07/23 14:34:12;;;;;;;6.60;3.35;;;;;;;27.16;38.43;94587.41;10535306;28;20024;-85
2021/07/23 14:39:13;;;;;;;4.77;3.53;;;;;;;27.13;39.05;94596.47;10536447;28;20028;-84
2021/07/23 14:44:13;;;;;;;4.25;3.38;;;;;;;27.03;39.56;94597.97;10536198;28;20030;-86
2021/07/23 14:49:14;;;;;;;9.23;3.90;;;;;;;27.00;42.14;94595.97;10536837;28;20024;-86
2021/07/23 14:54:14;;;;;;;8.18;4.38;;;;;;;26.80;45.00;94594.63;10536683;28;20155;-85
2021/07/23 14:59:15;;;;;;;4.90;3.43;;;;;;;26.69;45.93;94595.31;10536845;28;20032;-85
2021/07/23 15:04:15;;;;;;;10.37;4.00;;;;;;;26.55;46.29;94595.94;10536206;28;20746;-85
2021/07/23 15:09:15;;;;;;;6.63;3.57;;;;;;;26.52;45.09;94587.66;10526883;28;20024;-85
2021/07/23 15:14:16;;;;;;;6.27;3.90;;;;;;;26.52;45.38;94584.91;10530087;28;20039;-85
2021/07/23 15:19:22;;;;;;;5.37;3.93;;;;;;;26.58;44.48;94583.38;10534508;28;20078;-85
2021/07/23 15:24:23;;;;;;;6.65;3.65;;;;;;;26.66;43.57;94590.53;10545152;28;20060;-85
2021/07/23 15:29:23;;;;;;;5.00;3.90;;;;;;;26.71;43.97;94590.22;10535896;28;20020;-85
2021/07/23 15:34:23;;;;;;;5.60;3.53;;;;;;;26.71;44.20;94590.22;10535765;28;20042;-85
2021/07/23 15:39:24;;;;;;;7.97;4.47;;;;;;;26.54;44.87;94588.06;10535250;28;20032;-85
2021/07/23 15:44:24;;;;;;;20.50;4.53;;;;;;;26.47;45.38;94580.53;10535634;28;20443;-85
2021/07/23 15:49:25;;;;;;;5.43;3.90;;;;;;;26.35;49.06;94591.81;10531493;28;20024;-86
2021/07/23 15:54:25;;;;;;;4.20;3.23;;;;;;;26.20;48.77;94590.88;10528533;28;20441;-86
2021/07/23 15:59:25;;;;;;;8.90;4.38;;;;;;;26.03;50.36;94595.81;10533362;28;20381;-85
2021/07/23 16:04:26;;;;;;;10.40;4.37;;;;;;;25.93;54.06;94591.75;10535139;28;20047;-85
2021/07/23 16:09:27;;;;;;;10.23;4.37;;;;;;;25.84;53.75;94595.94;10535247;28;20069;-86
2021/07/23 16:14:28;;;;;;;8.00;4.65;;;;;;;25.83;53.59;94597.91;10534546;28;20837;-86
2021/07/23 16:19:28;;;;;;;11.77;4.63;;;;;;;25.74;54.14;94603.69;10534861;28;20034;-86
2021/07/23 16:24:28;;;;;;;6.47;4.17;;;;;;;25.77;52.10;94602.16;10536043;28;20040;-86
2021/07/23 16:29:30;;;;;;;9.53;5.27;;;;;;;25.78;51.13;94608.47;10542154;28;20012;-86
2021/07/23 16:34:34;;;;;;;8.35;4.78;;;;;;;25.58;52.13;94611.38;10541987;28;20090;-86
2021/07/23 16:39:34;;;;;;;7.57;5.00;;;;;;;25.52;53.79;94608.16;10542053;28;20103;-86
2021/07/23 16:44:35;;;;;;;10.13;4.83;;;;;;;25.36;51.95;94605.56;10541888;28;20530;-86
2021/07/23 16:49:36;;;;;;;8.30;4.97;;;;;;;25.31;53.89;94613.31;10541827;28;20024;-85
2021/07/23 16:54:38;;;;;;;7.83;5.20;;;;;;;25.17;53.43;94613.88;10541591;28;20039;-86
2021/07/23 16:59:38;;;;;;;7.25;5.13;;;;;;;25.06;54.70;94605.47;10541532;28;20020;-85
2021/07/23 17:04:39;;;;;;;10.17;5.87;;;;;;;24.79;55.01;94607.41;10541741;28;20835;-86
2021/07/23 17:09:39;;;;;;;8.40;6.20;;;;;;;24.72;54.74;94619.06;10541231;28;20028;-86
2021/07/23 17:14:39;;;;;;;8.53;5.40;;;;;;;24.62;54.50;94612.25;10540922;28;20479;-86
2021/07/23 17:19:40;;;;;;;7.03;5.67;;;;;;;24.43;58.97;94615.78;10541194;28;20038;-86
2021/07/23 17:24:40;;;;;;;7.80;5.85;;;;;;;24.34;58.44;94631.72;10540374;28;20067;-85
2021/07/23 17:29:41;;;;;;;18.23;6.87;;;;;;;24.11;59.60;94632.47;10540193;28;20024;-86
2021/07/23 17:34:46;;;;;;;8.33;6.03;;;;;;;24.02;60.36;94631.91;10539962;28;20115;-86
2021/07/23 17:39:46;;;;;;;16.83;7.80;;;;;;;23.91;62.31;94628.94;10539498;28;20031;-85
2021/07/23 17:44:53;;;;;;;10.27;5.80;;;;;;;23.83;63.11;94630.72;10539353;28;20429;-85
2021/07/23 17:50:01;;;;;;;8.23;5.68;;;;;;;23.81;65.45;94635.78;10552953;28;20071;-85
2021/07/23 17:55:08;;;;;;;10.85;6.35;;;;;;;23.76;64.52;94644.28;10538688;28;20430;-86
2021/07/23 18:00:10;;;;;;;9.93;6.72;;;;;;;23.67;65.44;94649.19;10538338;28;20071;-85
2021/07/23 18:05:11;;;;;;;8.50;6.40;;;;;;;23.64;66.80;94649.91;10537098;28;20122;-86
2021/07/23 18:10:11;;;;;;;9.43;6.35;;;;;;;23.53;65.90;94646.94;10553558;28;20106;-86
2021/07/23 18:15:12;;;;;;;12.88;6.88;;;;;;;23.47;66.53;94656.59;10536985;28;20111;-85
2021/07/23 18:20:12;;;;;;;13.80;7.87;;;;;;;23.41;66.45;94661.56;10547538;28;20042;-85
2021/07/23 18:25:13;;;;;;;13.32;7.55;;;;;;;23.36;69.47;94665.38;10537051;28;20746;-85
2021/07/23 18:30:16;;;;;;;12.75;8.07;;;;;;;23.25;71.03;94669.00;10537045;28;20472;-85
2021/07/23 18:35:17;;;;;;;10.68;6.85;;;;;;;23.18;70.02;94667.69;10536817;28;20107;-85
2021/07/23 18:40:17;;;;;;;10.17;7.30;;;;;;;23.13;73.22;94675.41;10536654;28;20106;-85
2021/07/23 18:45:18;;;;;;;15.60;7.67;;;;;;;23.00;78.27;94680.94;10536729;28;20031;-85
2021/07/23 18:50:18;;;;;;;13.98;7.93;;;;;;;22.86;80.53;94688.81;10563204;28;20306;-84
2021/07/23 18:55:19;;;;;;;16.77;8.00;;;;;;;22.70;82.51;94689.59;10578581;28;20098;-85
2021/07/23 19:00:19;;;;;;;11.82;7.43;;;;;;;22.41;84.22;94693.53;10578293;28;20702;-85
2021/07/23 19:05:20;;;;;;;15.53;8.33;;;;;;;22.18;87.59;94707.72;10578191;28;20027;-85
2021/07/23 19:10:20;;;;;;;9.35;7.10;;;;;;;21.93;90.80;94708.97;10578092;28;20152;-85
2021/07/23 19:15:21;;;;;;;16.75;8.52;;;;;;;21.85;92.37;94716.16;10578400;28;20442;-85
2021/07/23 19:20:21;;;;;;;16.13;7.93;;;;;;;21.85;92.35;94707.94;10578006;28;20519;-85
2021/07/23 19:25:22;;;;;;;15.18;7.72;;;;;;;21.82;94.15;94709.47;10559531;28;20055;-84
2021/07/23 19:30:22;;;;;;;16.50;9.20;;;;;;;21.86;95.80;94712.28;10577621;28;20051;-84
2021/07/23 19:35:23;;;;;;;14.47;8.10;;;;;;;21.78;95.04;94716.78;10577388;28;20072;-85
2021/07/23 19:40:23;;;;;;;15.47;7.73;;;;;;;21.61;95.61;94712.31;10564976;28;20316;-85
2021/07/23 19:45:23;;;;;;;14.32;7.40;;;;;;;21.66;95.40;94716.78;10575139;28;20501;-85
2021/07/23 19:50:25;;;;;;;13.27;8.07;;;;;;;21.68;95.41;94711.75;10558670;28;20110;-85
2021/07/23 19:55:25;;;;;;;13.70;7.90;;;;;;;21.78;96.19;94714.03;10577336;28;20055;-85
2021/07/23 20:00:25;;;;;;;14.63;8.07;;;;;;;21.84;95.06;94700.91;10561967;28;20571;-85
2021/07/23 20:05:27;;;;;;;10.80;7.57;;;;;;;21.83;95.03;94704.78;10585238;28;20313;-85
2021/07/23 20:10:31;;;;;;;14.95;7.88;;;;;;;21.75;99.75;94705.72;10585016;28;20352;-85
2021/07/23 20:15:33;;;;;;;18.02;8.43;;;;;;;21.72;99.49;94703.66;10584940;28;20482;-84
2021/07/23 20:20:33;;;;;;;14.45;8.05;;;;;;;21.63;99.04;94715.53;10584831;28;20102;-85
2021/07/23 20:25:33;;;;;;;14.80;7.70;;;;;;;21.46;97.10;94718.47;10584269;28;20138;-85
2021/07/23 20:30:34;;;;;;;13.33;7.60;;;;;;;21.17;99.08;94720.31;10584314;28;20069;-85
2021/07/23 20:35:35;;;;;;;11.27;7.63;;;;;;;21.08;100.00;94722.34;10583806;28;20031;-84
2021/07/23 20:40:35;;;;;;;11.68;7.63;;;;;;;21.03;100.00;94725.31;10583707;28;20022;-85
2021/07/23 20:45:35;;;;;;;12.97;8.57;;;;;;;20.83;100.00;94733.25;10583647;28;20123;-85
2021/07/23 20:50:36;;;;;;;12.60;7.63;;;;;;;20.84;100.00;94740.31;10572328;28;20092;-85
2021/07/23 20:55:36;;;;;;;10.90;7.27;;;;;;;20.85;100.00;94735.63;10591495;27;20028;-85
2021/07/23 21:00:36;;;;;;;12.80;7.10;;;;;;;20.90;100.00;94729.97;10580838;28;20038;-85
2021/07/23 21:05:37;;;;;;;11.80;7.17;;;;;;;20.87;100.00;94728.69;10582565;28;20019;-85
2021/07/23 21:10:38;;;;;;;9.20;6.70;;;;;;;20.95;100.00;94738.72;10563906;28;20269;-85
2021/07/23 21:15:39;;;;;;;12.48;8.05;;;;;;;20.96;100.00;94745.00;10560590;28;20383;-85
2021/07/23 21:20:42;;;;;;;12.07;7.00;;;;;;;21.09;98.92;94732.16;10540150;28;20032;-85
2021/07/23 21:25:42;;;;;;;8.38;7.10;;;;;;;21.08;99.44;94733.28;10539783;28;20067;-85
2021/07/23 21:30:43;;;;;;;10.40;6.90;;;;;;;20.98;99.15;94734.53;10539719;28;20131;-85
2021/07/23 21:35:43;;;;;;;12.60;6.97;;;;;;;20.99;100.00;94747.84;10539689;28;20402;-85
2021/07/23 21:40:43;;;;;;;9.13;7.07;;;;;;;20.98;99.25;94746.25;10555082;28;20398;-85
2021/07/23 21:45:45;;;;;;;17.17;7.43;;;;;;;21.00;100.00;94743.97;10539540;28;20436;-85
2021/07/23 21:50:45;;;;;;;11.50;6.55;;;;;;;20.82;100.00;94756.25;10539011;28;20034;-85
2021/07/23 21:55:46;;;;;;;12.63;7.40;;;;;;;20.80;100.00;94744.84;10520923;28;20110;-85
2021/07/23 22:00:46;;;;;;;11.57;6.80;;;;;;;20.76;100.00;94744.75;10537856;28;20289;-85
2021/07/23 22:05:46;;;;;;;12.87;7.27;;;;;;;20.73;100.00;94741.88;10537402;28;20039;-85
2021/07/23 22:10:47;;;;;;;10.67;7.20;;;;;;;20.63;100.00;94741.13;10534363;28;20292;-85
2021/07/23 22:15:47;;;;;;;10.77;7.73;;;;;;;20.59;100.00;94751.13;10537769;28;20266;-85
2021/07/23 22:20:47;;;;;;;10.50;6.70;;;;;;;20.55;100.00;94752.16;10537594;28;20031;-85
2021/07/23 22:25:48;;;;;;;9.73;6.67;;;;;;;20.18;100.00;94754.72;10552285;28;20044;-85
2021/07/23 22:30:48;;;;;;;10.87;6.40;;;;;;;19.66;100.00;94759.41;10537168;28;20027;-85
2021/07/23 22:35:49;;;;;;;8.23;6.90;;;;;;;19.13;100.00;94758.88;10537169;28;20103;-84
2021/07/23 22:40:50;;;;;;;11.57;7.43;;;;;;;18.74;100.00;94747.94;10537034;28;20652;-84
2021/07/23 22:45:51;;;;;;;13.30;6.97;;;;;;;18.56;100.00;94746.38;10537233;28;20027;-84
2021/07/23 22:50:51;;;;;;;11.32;7.65;;;;;;;18.47;100.00;94740.94;10536769;28;20024;-84
2021/07/23 22:55:52;;;;;;;11.33;7.80;;;;;;;18.26;100.00;94736.16;10536680;28;20478;-84
2021/07/23 23:00:54;;;;;;;11.68;6.85;;;;;;;18.28;100.00;94744.03;10536317;28;20024;-85
2021/07/23 23:05:54;;;;;;;11.70;7.95;;;;;;;18.43;100.00;94742.72;10536189;28;20066;-85
2021/07/23 23:10:54;;;;;;;12.77;7.47;;;;;;;18.49;100.00;94738.72;10536146;28;20056;-85